sensor_id;sensor_type;location;lat;lon;timestamp;P1;durP1;ratioP1;P2;durP2;ratioP2
23258;SDS011;11798;51.528;7.240;2022-12-07T00:02:17;39.50;;;26.20;;
23258;SDS011;11798;51.528;7.240;2022-12-07T00:04:43;41.23;;;28.00;;
23258;SDS011;11798;51.528;7.240;2022-12-07T00:07:08;38.33;;;25.93;;
23258;SDS011;11798;51.528;7.240;2022-12-07T00:09:34;38.90;;;27.07;;
23258;SDS011;11798;51.528;7.240;2022-12-07T00:11:59;38.23;;;24.83;;
23258;SDS011;11798;51.528;7.240;2022-12-07T00:14:25;38.50;;;25.90;;
23258;SDS011;11798;51.528;7.240;2022-12-07T00:16:51;36.43;;;25.20;;
23258;SDS011;11798;51.528;7.240;2022-12-07T00:19:17;36.60;;;24.10;;
23258;SDS011;11798;51.528;7.240;2022-12-07T00:21:42;36.37;;;24.00;;
23258;SDS011;11798;51.528;7.240;2022-12-07T00:24:09;32.00;;;23.87;;
23258;SDS011;11798;51.528;7.240;2022-12-07T00:26:36;35.80;;;22.93;;
23258;SDS011;11798;51.528;7.240;2022-12-07T00:29:05;35.07;;;23.77;;
23258;SDS011;11798;51.528;7.240;2022-12-07T00:31:37;30.90;;;21.73;;
23258;SDS011;11798;51.528;7.240;2022-12-07T00:34:04;30.63;;;21.40;;
23258;SDS011;11798;51.528;7.240;2022-12-07T00:36:31;32.33;;;22.30;;
23258;SDS011;11798;51.528;7.240;2022-12-07T00:38:57;33.23;;;23.07;;
23258;SDS011;11798;51.528;7.240;2022-12-07T00:41:25;36.10;;;23.63;;
23258;SDS011;11798;51.528;7.240;2022-12-07T00:43:52;32.63;;;22.87;;
23258;SDS011;11798;51.528;7.240;2022-12-07T00:46:18;32.00;;;21.90;;
23258;SDS011;11798;51.528;7.240;2022-12-07T00:48:45;36.93;;;23.60;;
23258;SDS011;11798;51.528;7.240;2022-12-07T00:51:12;38.30;;;22.97;;
23258;SDS011;11798;51.528;7.240;2022-12-07T00:53:39;33.57;;;22.40;;
23258;SDS011;11798;51.528;7.240;2022-12-07T00:56:05;36.83;;;24.43;;
23258;SDS011;11798;51.528;7.240;2022-12-07T00:58:36;37.17;;;24.83;;
23258;SDS011;11798;51.528;7.240;2022-12-07T01:01:02;38.33;;;24.23;;
23258;SDS011;11798;51.528;7.240;2022-12-07T01:03:29;39.63;;;25.33;;
23258;SDS011;11798;51.528;7.240;2022-12-07T01:05:55;36.07;;;25.37;;
23258;SDS011;11798;51.528;7.240;2022-12-07T01:08:22;35.63;;;24.40;;
23258;SDS011;11798;51.528;7.240;2022-12-07T01:10:49;38.73;;;25.60;;
23258;SDS011;11798;51.528;7.240;2022-12-07T01:13:22;43.40;;;25.90;;
23258;SDS011;11798;51.528;7.240;2022-12-07T01:15:47;39.70;;;27.17;;
23258;SDS011;11798;51.528;7.240;2022-12-07T01:18:13;38.37;;;26.10;;
23258;SDS011;11798;51.528;7.240;2022-12-07T01:20:38;39.43;;;27.53;;
23258;SDS011;11798;51.528;7.240;2022-12-07T01:23:04;37.83;;;25.33;;
23258;SDS011;11798;51.528;7.240;2022-12-07T01:25:30;40.00;;;27.53;;
23258;SDS011;11798;51.528;7.240;2022-12-07T01:27:55;42.73;;;29.33;;
23258;SDS011;11798;51.528;7.240;2022-12-07T01:30:21;40.33;;;28.23;;
23258;SDS011;11798;51.528;7.240;2022-12-07T01:32:47;42.53;;;28.60;;
23258;SDS011;11798;51.528;7.240;2022-12-07T01:35:12;45.53;;;28.87;;
23258;SDS011;11798;51.528;7.240;2022-12-07T01:37:38;41.93;;;28.37;;
23258;SDS011;11798;51.528;7.240;2022-12-07T01:40:05;41.53;;;28.73;;
23258;SDS011;11798;51.528;7.240;2022-12-07T01:42:31;42.37;;;29.93;;
23258;SDS011;11798;51.528;7.240;2022-12-07T01:47:43;42.50;;;28.50;;
23258;SDS011;11798;51.528;7.240;2022-12-07T01:50:13;45.73;;;29.53;;
23258;SDS011;11798;51.528;7.240;2022-12-07T01:52:39;45.57;;;30.67;;
23258;SDS011;11798;51.528;7.240;2022-12-07T01:55:07;45.17;;;29.70;;
23258;SDS011;11798;51.528;7.240;2022-12-07T01:57:37;50.23;;;30.93;;
23258;SDS011;11798;51.528;7.240;2022-12-07T02:00:07;41.20;;;29.00;;
23258;SDS011;11798;51.528;7.240;2022-12-07T02:02:34;45.40;;;29.13;;
23258;SDS011;11798;51.528;7.240;2022-12-07T02:05:07;40.00;;;30.23;;
23258;SDS011;11798;51.528;7.240;2022-12-07T02:07:34;48.10;;;31.10;;
23258;SDS011;11798;51.528;7.240;2022-12-07T02:10:15;46.23;;;30.13;;
23258;SDS011;11798;51.528;7.240;2022-12-07T02:12:42;42.87;;;29.07;;
23258;SDS011;11798;51.528;7.240;2022-12-07T02:15:11;45.60;;;29.00;;
23258;SDS011;11798;51.528;7.240;2022-12-07T02:17:40;41.33;;;29.93;;
23258;SDS011;11798;51.528;7.240;2022-12-07T02:36:58;43.80;;;28.83;;
23258;SDS011;11798;51.528;7.240;2022-12-07T02:39:41;57.03;;;30.43;;
23258;SDS011;11798;51.528;7.240;2022-12-07T02:42:15;48.20;;;29.07;;
23258;SDS011;11798;51.528;7.240;2022-12-07T02:44:48;45.37;;;29.57;;
23258;SDS011;11798;51.528;7.240;2022-12-07T02:47:14;44.87;;;28.23;;
23258;SDS011;11798;51.528;7.240;2022-12-07T02:49:43;44.10;;;29.20;;
23258;SDS011;11798;51.528;7.240;2022-12-07T02:52:09;48.23;;;29.70;;
23258;SDS011;11798;51.528;7.240;2022-12-07T02:54:35;42.10;;;27.10;;
23258;SDS011;11798;51.528;7.240;2022-12-07T03:05:15;41.60;;;28.07;;
23258;SDS011;11798;51.528;7.240;2022-12-07T03:10:45;46.90;;;28.80;;
23258;SDS011;11798;51.528;7.240;2022-12-07T03:13:24;43.73;;;27.93;;
23258;SDS011;11798;51.528;7.240;2022-12-07T03:18:50;42.30;;;28.00;;
23258;SDS011;11798;51.528;7.240;2022-12-07T03:21:21;46.93;;;29.03;;
23258;SDS011;11798;51.528;7.240;2022-12-07T03:23:54;44.40;;;28.67;;
23258;SDS011;11798;51.528;7.240;2022-12-07T03:26:24;43.07;;;28.90;;
23258;SDS011;11798;51.528;7.240;2022-12-07T03:29:09;47.53;;;28.47;;
23258;SDS011;11798;51.528;7.240;2022-12-07T03:31:40;45.87;;;29.07;;
23258;SDS011;11798;51.528;7.240;2022-12-07T03:37:01;43.33;;;28.10;;
23258;SDS011;11798;51.528;7.240;2022-12-07T03:42:24;44.87;;;28.60;;
23258;SDS011;11798;51.528;7.240;2022-12-07T03:44:50;42.13;;;28.53;;
23258;SDS011;11798;51.528;7.240;2022-12-07T03:47:22;45.33;;;28.80;;
23258;SDS011;11798;51.528;7.240;2022-12-07T03:52:42;42.67;;;28.27;;
23258;SDS011;11798;51.528;7.240;2022-12-07T03:55:19;42.57;;;28.00;;
23258;SDS011;11798;51.528;7.240;2022-12-07T03:57:55;43.80;;;27.73;;
23258;SDS011;11798;51.528;7.240;2022-12-07T04:00:24;42.37;;;27.37;;
23258;SDS011;11798;51.528;7.240;2022-12-07T04:02:51;43.00;;;28.23;;
23258;SDS011;11798;51.528;7.240;2022-12-07T04:05:17;41.20;;;26.10;;
23258;SDS011;11798;51.528;7.240;2022-12-07T04:07:43;43.53;;;28.27;;
23258;SDS011;11798;51.528;7.240;2022-12-07T04:10:09;43.57;;;27.90;;
23258;SDS011;11798;51.528;7.240;2022-12-07T04:12:36;45.80;;;28.80;;
23258;SDS011;11798;51.528;7.240;2022-12-07T04:15:02;46.00;;;28.67;;
23258;SDS011;11798;51.528;7.240;2022-12-07T04:17:28;44.73;;;27.70;;
23258;SDS011;11798;51.528;7.240;2022-12-07T04:19:53;42.47;;;27.60;;
23258;SDS011;11798;51.528;7.240;2022-12-07T04:22:19;43.97;;;27.03;;
23258;SDS011;11798;51.528;7.240;2022-12-07T04:24:45;42.33;;;26.93;;
23258;SDS011;11798;51.528;7.240;2022-12-07T04:27:11;38.70;;;26.87;;
23258;SDS011;11798;51.528;7.240;2022-12-07T04:29:36;41.40;;;27.83;;
23258;SDS011;11798;51.528;7.240;2022-12-07T04:32:02;41.33;;;26.47;;
23258;SDS011;11798;51.528;7.240;2022-12-07T04:34:27;43.27;;;26.63;;
23258;SDS011;11798;51.528;7.240;2022-12-07T04:36:53;44.87;;;26.87;;
23258;SDS011;11798;51.528;7.240;2022-12-07T04:41:46;42.60;;;27.67;;
23258;SDS011;11798;51.528;7.240;2022-12-07T04:44:11;41.70;;;26.03;;
23258;SDS011;11798;51.528;7.240;2022-12-07T04:46:39;38.47;;;26.70;;
23258;SDS011;11798;51.528;7.240;2022-12-07T04:49:05;38.47;;;25.73;;
23258;SDS011;11798;51.528;7.240;2022-12-07T04:51:31;39.90;;;25.80;;
23258;SDS011;11798;51.528;7.240;2022-12-07T04:53:57;40.83;;;25.87;;
23258;SDS011;11798;51.528;7.240;2022-12-07T04:56:23;39.57;;;26.17;;
23258;SDS011;11798;51.528;7.240;2022-12-07T04:58:51;36.67;;;25.07;;
23258;SDS011;11798;51.528;7.240;2022-12-07T05:01:17;42.57;;;26.30;;
23258;SDS011;11798;51.528;7.240;2022-12-07T05:03:43;38.90;;;25.20;;
23258;SDS011;11798;51.528;7.240;2022-12-07T05:06:10;40.53;;;25.77;;
23258;SDS011;11798;51.528;7.240;2022-12-07T05:08:36;46.97;;;26.83;;
23258;SDS011;11798;51.528;7.240;2022-12-07T05:11:02;43.20;;;25.00;;
23258;SDS011;11798;51.528;7.240;2022-12-07T05:13:28;36.77;;;24.87;;
23258;SDS011;11798;51.528;7.240;2022-12-07T05:15:54;41.00;;;26.13;;
23258;SDS011;11798;51.528;7.240;2022-12-07T05:18:20;36.47;;;22.47;;
23258;SDS011;11798;51.528;7.240;2022-12-07T05:20:45;35.83;;;24.77;;
23258;SDS011;11798;51.528;7.240;2022-12-07T05:23:11;39.80;;;25.77;;
23258;SDS011;11798;51.528;7.240;2022-12-07T05:25:37;39.20;;;23.60;;
23258;SDS011;11798;51.528;7.240;2022-12-07T05:28:03;37.97;;;24.97;;
23258;SDS011;11798;51.528;7.240;2022-12-07T05:30:29;38.83;;;24.43;;
23258;SDS011;11798;51.528;7.240;2022-12-07T05:32:56;39.93;;;23.73;;
23258;SDS011;11798;51.528;7.240;2022-12-07T05:35:21;39.03;;;24.70;;
23258;SDS011;11798;51.528;7.240;2022-12-07T05:37:47;36.43;;;22.13;;
23258;SDS011;11798;51.528;7.240;2022-12-07T05:40:13;36.30;;;23.23;;
23258;SDS011;11798;51.528;7.240;2022-12-07T05:42:40;38.60;;;24.57;;
23258;SDS011;11798;51.528;7.240;2022-12-07T05:45:07;39.97;;;24.83;;
23258;SDS011;11798;51.528;7.240;2022-12-07T05:47:34;35.50;;;23.67;;
23258;SDS011;11798;51.528;7.240;2022-12-07T05:50:00;38.53;;;23.17;;
23258;SDS011;11798;51.528;7.240;2022-12-07T05:52:25;38.90;;;24.43;;
23258;SDS011;11798;51.528;7.240;2022-12-07T05:54:51;40.43;;;24.67;;
23258;SDS011;11798;51.528;7.240;2022-12-07T05:57:17;40.13;;;24.80;;
23258;SDS011;11798;51.528;7.240;2022-12-07T05:59:43;39.83;;;24.43;;
23258;SDS011;11798;51.528;7.240;2022-12-07T06:02:09;43.57;;;24.00;;
23258;SDS011;11798;51.528;7.240;2022-12-07T06:04:37;41.03;;;24.00;;
23258;SDS011;11798;51.528;7.240;2022-12-07T06:07:05;39.40;;;23.73;;
23258;SDS011;11798;51.528;7.240;2022-12-07T06:09:32;43.87;;;24.47;;
23258;SDS011;11798;51.528;7.240;2022-12-07T06:11:58;50.63;;;26.17;;
23258;SDS011;11798;51.528;7.240;2022-12-07T06:14:42;43.43;;;25.23;;
23258;SDS011;11798;51.528;7.240;2022-12-07T06:17:08;47.17;;;24.83;;
23258;SDS011;11798;51.528;7.240;2022-12-07T06:19:34;45.23;;;25.67;;
23258;SDS011;11798;51.528;7.240;2022-12-07T06:22:00;37.97;;;23.40;;
23258;SDS011;11798;51.528;7.240;2022-12-07T06:24:27;40.63;;;23.17;;
23258;SDS011;11798;51.528;7.240;2022-12-07T06:26:53;42.90;;;24.10;;
23258;SDS011;11798;51.528;7.240;2022-12-07T06:29:18;34.60;;;22.30;;
23258;SDS011;11798;51.528;7.240;2022-12-07T06:31:44;33.80;;;21.97;;
23258;SDS011;11798;51.528;7.240;2022-12-07T06:34:11;32.00;;;21.23;;
23258;SDS011;11798;51.528;7.240;2022-12-07T06:36:39;37.73;;;22.23;;
23258;SDS011;11798;51.528;7.240;2022-12-07T06:39:05;36.07;;;22.47;;
23258;SDS011;11798;51.528;7.240;2022-12-07T06:41:31;38.43;;;22.60;;
23258;SDS011;11798;51.528;7.240;2022-12-07T06:43:57;35.13;;;21.87;;
23258;SDS011;11798;51.528;7.240;2022-12-07T06:46:22;36.50;;;21.60;;
23258;SDS011;11798;51.528;7.240;2022-12-07T06:48:48;35.93;;;20.97;;
23258;SDS011;11798;51.528;7.240;2022-12-07T06:51:14;36.00;;;21.13;;
23258;SDS011;11798;51.528;7.240;2022-12-07T06:53:40;33.10;;;21.00;;
23258;SDS011;11798;51.528;7.240;2022-12-07T06:56:06;32.67;;;19.37;;
23258;SDS011;11798;51.528;7.240;2022-12-07T06:58:32;35.87;;;20.77;;
23258;SDS011;11798;51.528;7.240;2022-12-07T07:00:58;33.10;;;20.57;;
23258;SDS011;11798;51.528;7.240;2022-12-07T07:03:23;31.40;;;19.50;;
23258;SDS011;11798;51.528;7.240;2022-12-07T07:05:49;35.40;;;20.80;;
23258;SDS011;11798;51.528;7.240;2022-12-07T07:08:15;33.20;;;20.83;;
23258;SDS011;11798;51.528;7.240;2022-12-07T07:10:40;35.07;;;20.13;;
23258;SDS011;11798;51.528;7.240;2022-12-07T07:13:06;32.70;;;20.20;;
23258;SDS011;11798;51.528;7.240;2022-12-07T07:15:33;35.03;;;19.90;;
23258;SDS011;11798;51.528;7.240;2022-12-07T07:17:59;32.50;;;19.30;;
23258;SDS011;11798;51.528;7.240;2022-12-07T07:20:25;32.33;;;20.37;;
23258;SDS011;11798;51.528;7.240;2022-12-07T07:22:53;30.23;;;18.40;;
23258;SDS011;11798;51.528;7.240;2022-12-07T07:25:20;31.90;;;20.13;;
23258;SDS011;11798;51.528;7.240;2022-12-07T07:27:45;32.93;;;19.93;;
23258;SDS011;11798;51.528;7.240;2022-12-07T07:30:11;35.17;;;19.97;;
23258;SDS011;11798;51.528;7.240;2022-12-07T07:32:37;31.97;;;19.20;;
23258;SDS011;11798;51.528;7.240;2022-12-07T07:35:03;33.97;;;19.77;;
23258;SDS011;11798;51.528;7.240;2022-12-07T07:37:29;31.70;;;18.20;;
23258;SDS011;11798;51.528;7.240;2022-12-07T07:39:54;37.50;;;18.87;;
23258;SDS011;11798;51.528;7.240;2022-12-07T07:42:20;28.30;;;18.20;;
23258;SDS011;11798;51.528;7.240;2022-12-07T07:44:46;35.33;;;19.13;;
23258;SDS011;11798;51.528;7.240;2022-12-07T07:47:11;29.00;;;18.17;;
23258;SDS011;11798;51.528;7.240;2022-12-07T07:49:37;29.10;;;18.47;;
23258;SDS011;11798;51.528;7.240;2022-12-07T07:52:03;34.33;;;17.83;;
23258;SDS011;11798;51.528;7.240;2022-12-07T07:54:30;31.37;;;19.07;;
23258;SDS011;11798;51.528;7.240;2022-12-07T07:56:56;28.50;;;17.90;;
23258;SDS011;11798;51.528;7.240;2022-12-07T07:59:22;35.97;;;18.07;;
23258;SDS011;11798;51.528;7.240;2022-12-07T08:01:47;34.50;;;18.27;;
23258;SDS011;11798;51.528;7.240;2022-12-07T08:04:13;31.27;;;16.83;;
23258;SDS011;11798;51.528;7.240;2022-12-07T08:06:39;33.50;;;17.33;;
23258;SDS011;11798;51.528;7.240;2022-12-07T08:09:04;31.53;;;17.53;;
23258;SDS011;11798;51.528;7.240;2022-12-07T08:11:31;28.03;;;17.00;;
23258;SDS011;11798;51.528;7.240;2022-12-07T08:13:57;29.13;;;17.27;;
23258;SDS011;11798;51.528;7.240;2022-12-07T08:16:22;31.47;;;17.00;;
23258;SDS011;11798;51.528;7.240;2022-12-07T08:18:48;32.50;;;16.37;;
23258;SDS011;11798;51.528;7.240;2022-12-07T08:21:14;29.50;;;15.83;;
23258;SDS011;11798;51.528;7.240;2022-12-07T08:23:40;29.60;;;17.40;;
23258;SDS011;11798;51.528;7.240;2022-12-07T08:26:08;27.80;;;16.30;;
23258;SDS011;11798;51.528;7.240;2022-12-07T08:28:36;30.33;;;16.10;;
23258;SDS011;11798;51.528;7.240;2022-12-07T08:31:02;27.10;;;15.33;;
23258;SDS011;11798;51.528;7.240;2022-12-07T08:33:30;30.37;;;15.87;;
23258;SDS011;11798;51.528;7.240;2022-12-07T08:36:00;29.13;;;15.33;;
23258;SDS011;11798;51.528;7.240;2022-12-07T08:38:26;26.13;;;14.10;;
23258;SDS011;11798;51.528;7.240;2022-12-07T08:40:55;26.17;;;14.70;;
23258;SDS011;11798;51.528;7.240;2022-12-07T08:43:21;28.03;;;14.03;;
23258;SDS011;11798;51.528;7.240;2022-12-07T08:45:47;31.63;;;14.30;;
23258;SDS011;11798;51.528;7.240;2022-12-07T08:48:27;27.53;;;13.97;;
23258;SDS011;11798;51.528;7.240;2022-12-07T08:50:53;26.67;;;13.67;;
23258;SDS011;11798;51.528;7.240;2022-12-07T08:53:18;22.27;;;12.10;;
23258;SDS011;11798;51.528;7.240;2022-12-07T08:55:44;23.17;;;12.60;;
23258;SDS011;11798;51.528;7.240;2022-12-07T08:58:11;23.10;;;12.00;;
23258;SDS011;11798;51.528;7.240;2022-12-07T09:00:37;23.23;;;12.67;;
23258;SDS011;11798;51.528;7.240;2022-12-07T09:03:03;23.00;;;12.10;;
23258;SDS011;11798;51.528;7.240;2022-12-07T09:05:28;20.83;;;11.40;;
23258;SDS011;11798;51.528;7.240;2022-12-07T09:07:55;21.37;;;11.00;;
23258;SDS011;11798;51.528;7.240;2022-12-07T09:10:23;26.67;;;12.90;;
23258;SDS011;11798;51.528;7.240;2022-12-07T09:12:49;23.27;;;12.00;;
23258;SDS011;11798;51.528;7.240;2022-12-07T09:15:15;27.33;;;13.07;;
23258;SDS011;11798;51.528;7.240;2022-12-07T09:17:40;21.17;;;11.43;;
23258;SDS011;11798;51.528;7.240;2022-12-07T09:20:06;25.20;;;11.77;;
23258;SDS011;11798;51.528;7.240;2022-12-07T09:22:32;20.23;;;11.30;;
23258;SDS011;11798;51.528;7.240;2022-12-07T09:24:58;24.97;;;11.43;;
23258;SDS011;11798;51.528;7.240;2022-12-07T09:27:24;20.97;;;11.23;;
23258;SDS011;11798;51.528;7.240;2022-12-07T09:29:51;22.93;;;10.70;;
23258;SDS011;11798;51.528;7.240;2022-12-07T09:32:16;22.07;;;11.07;;
23258;SDS011;11798;51.528;7.240;2022-12-07T09:34:42;21.13;;;11.37;;
23258;SDS011;11798;51.528;7.240;2022-12-07T09:37:07;24.60;;;11.03;;
23258;SDS011;11798;51.528;7.240;2022-12-07T09:39:34;21.97;;;10.63;;
23258;SDS011;11798;51.528;7.240;2022-12-07T09:41:59;18.23;;;10.50;;
23258;SDS011;11798;51.528;7.240;2022-12-07T09:44:28;17.90;;;10.30;;
23258;SDS011;11798;51.528;7.240;2022-12-07T09:46:54;22.80;;;10.70;;
23258;SDS011;11798;51.528;7.240;2022-12-07T09:49:22;19.13;;;10.23;;
23258;SDS011;11798;51.528;7.240;2022-12-07T09:52:03;18.13;;;9.80;;
23258;SDS011;11798;51.528;7.240;2022-12-07T09:54:50;17.60;;;9.60;;
23258;SDS011;11798;51.528;7.240;2022-12-07T09:57:16;18.47;;;10.67;;
23258;SDS011;11798;51.528;7.240;2022-12-07T09:59:53;21.13;;;10.63;;
23258;SDS011;11798;51.528;7.240;2022-12-07T10:05:03;20.07;;;9.03;;
23258;SDS011;11798;51.528;7.240;2022-12-07T10:07:32;15.60;;;8.60;;
23258;SDS011;11798;51.528;7.240;2022-12-07T10:09:57;15.17;;;9.03;;
23258;SDS011;11798;51.528;7.240;2022-12-07T10:12:23;18.63;;;9.47;;
23258;SDS011;11798;51.528;7.240;2022-12-07T10:15:02;19.33;;;9.43;;
23258;SDS011;11798;51.528;7.240;2022-12-07T10:17:35;15.43;;;8.53;;
23258;SDS011;11798;51.528;7.240;2022-12-07T10:22:36;15.53;;;8.97;;
23258;SDS011;11798;51.528;7.240;2022-12-07T10:25:09;17.57;;;9.53;;
23258;SDS011;11798;51.528;7.240;2022-12-07T10:27:43;18.20;;;8.80;;
23258;SDS011;11798;51.528;7.240;2022-12-07T10:30:27;18.93;;;8.80;;
23258;SDS011;11798;51.528;7.240;2022-12-07T10:32:52;15.30;;;8.80;;
23258;SDS011;11798;51.528;7.240;2022-12-07T10:37:47;12.90;;;7.70;;
23258;SDS011;11798;51.528;7.240;2022-12-07T10:51:36;17.00;;;8.13;;
23258;SDS011;11798;51.528;7.240;2022-12-07T11:00:01;19.90;;;8.87;;
23258;SDS011;11798;51.528;7.240;2022-12-07T11:08:00;19.90;;;8.03;;
23258;SDS011;11798;51.528;7.240;2022-12-07T11:10:57;18.43;;;8.17;;
23258;SDS011;11798;51.528;7.240;2022-12-07T11:13:37;14.13;;;7.37;;
23258;SDS011;11798;51.528;7.240;2022-12-07T11:19:19;17.00;;;8.20;;
23258;SDS011;11798;51.528;7.240;2022-12-07T11:21:58;14.90;;;7.40;;
23258;SDS011;11798;51.528;7.240;2022-12-07T11:30:34;12.30;;;7.10;;
23258;SDS011;11798;51.528;7.240;2022-12-07T11:41:48;13.23;;;6.37;;
23258;SDS011;11798;51.528;7.240;2022-12-07T11:46:52;11.00;;;6.33;;
23258;SDS011;11798;51.528;7.240;2022-12-07T11:49:37;15.60;;;5.87;;
23258;SDS011;11798;51.528;7.240;2022-12-07T11:52:17;14.33;;;5.80;;
23258;SDS011;11798;51.528;7.240;2022-12-07T11:54:51;14.73;;;6.20;;
23258;SDS011;11798;51.528;7.240;2022-12-07T11:57:32;16.10;;;6.07;;
23258;SDS011;11798;51.528;7.240;2022-12-07T12:00:08;16.80;;;6.47;;
23258;SDS011;11798;51.528;7.240;2022-12-07T12:02:51;15.60;;;6.23;;
23258;SDS011;11798;51.528;7.240;2022-12-07T12:05:24;13.53;;;5.00;;
23258;SDS011;11798;51.528;7.240;2022-12-07T12:10:36;13.33;;;4.97;;
23258;SDS011;11798;51.528;7.240;2022-12-07T12:18:53;7.93;;;4.97;;
23258;SDS011;11798;51.528;7.240;2022-12-07T12:21:40;12.53;;;5.77;;
23258;SDS011;11798;51.528;7.240;2022-12-07T12:24:15;10.60;;;4.97;;
23258;SDS011;11798;51.528;7.240;2022-12-07T12:26:57;12.73;;;4.97;;
23258;SDS011;11798;51.528;7.240;2022-12-07T12:29:37;11.30;;;5.30;;
23258;SDS011;11798;51.528;7.240;2022-12-07T12:32:06;11.60;;;5.00;;
23258;SDS011;11798;51.528;7.240;2022-12-07T12:45:24;8.73;;;4.00;;
23258;SDS011;11798;51.528;7.240;2022-12-07T12:47:56;9.80;;;4.07;;
23258;SDS011;11798;51.528;7.240;2022-12-07T12:50:35;7.93;;;3.80;;
23258;SDS011;11798;51.528;7.240;2022-12-07T12:53:03;9.07;;;3.03;;
23258;SDS011;11798;51.528;7.240;2022-12-07T12:58:29;10.77;;;3.27;;
23258;SDS011;11798;51.528;7.240;2022-12-07T13:03:58;8.43;;;3.57;;
23258;SDS011;11798;51.528;7.240;2022-12-07T13:08:49;10.03;;;3.33;;
23258;SDS011;11798;51.528;7.240;2022-12-07T13:11:29;8.93;;;3.23;;
23258;SDS011;11798;51.528;7.240;2022-12-07T13:17:01;14.60;;;3.63;;
23258;SDS011;11798;51.528;7.240;2022-12-07T13:24:56;11.30;;;3.47;;
23258;SDS011;11798;51.528;7.240;2022-12-07T13:27:28;11.30;;;4.30;;
23258;SDS011;11798;51.528;7.240;2022-12-07T13:29:56;12.43;;;4.00;;
23258;SDS011;11798;51.528;7.240;2022-12-07T13:32:23;8.90;;;3.40;;
23258;SDS011;11798;51.528;7.240;2022-12-07T13:34:54;7.73;;;3.63;;
23258;SDS011;11798;51.528;7.240;2022-12-07T13:37:22;13.83;;;3.47;;
23258;SDS011;11798;51.528;7.240;2022-12-07T13:39:58;7.10;;;3.50;;
23258;SDS011;11798;51.528;7.240;2022-12-07T13:44:57;7.57;;;3.40;;
23258;SDS011;11798;51.528;7.240;2022-12-07T13:47:38;8.17;;;3.90;;
23258;SDS011;11798;51.528;7.240;2022-12-07T13:50:22;10.13;;;4.03;;
23258;SDS011;11798;51.528;7.240;2022-12-07T13:52:56;11.23;;;4.20;;
23258;SDS011;11798;51.528;7.240;2022-12-07T13:55:24;12.60;;;5.43;;
23258;SDS011;11798;51.528;7.240;2022-12-07T13:57:50;8.47;;;3.80;;
23258;SDS011;11798;51.528;7.240;2022-12-07T14:00:19;11.17;;;4.80;;
23258;SDS011;11798;51.528;7.240;2022-12-07T14:03:04;9.30;;;5.30;;
23258;SDS011;11798;51.528;7.240;2022-12-07T14:05:44;9.60;;;5.00;;
23258;SDS011;11798;51.528;7.240;2022-12-07T14:10:40;8.67;;;3.63;;
23258;SDS011;11798;51.528;7.240;2022-12-07T14:15:59;8.77;;;3.87;;
23258;SDS011;11798;51.528;7.240;2022-12-07T14:18:27;8.63;;;3.90;;
23258;SDS011;11798;51.528;7.240;2022-12-07T14:23:35;6.50;;;4.00;;
23258;SDS011;11798;51.528;7.240;2022-12-07T14:26:18;10.93;;;4.43;;
23258;SDS011;11798;51.528;7.240;2022-12-07T14:28:45;6.23;;;4.00;;
23258;SDS011;11798;51.528;7.240;2022-12-07T14:31:16;9.23;;;4.40;;
23258;SDS011;11798;51.528;7.240;2022-12-07T14:33:46;5.47;;;3.33;;
23258;SDS011;11798;51.528;7.240;2022-12-07T14:36:12;9.13;;;4.37;;
23258;SDS011;11798;51.528;7.240;2022-12-07T14:38:39;6.27;;;4.17;;
23258;SDS011;11798;51.528;7.240;2022-12-07T14:41:06;8.50;;;4.30;;
23258;SDS011;11798;51.528;7.240;2022-12-07T14:43:58;9.10;;;5.17;;
23258;SDS011;11798;51.528;7.240;2022-12-07T14:46:24;7.47;;;4.87;;
23258;SDS011;11798;51.528;7.240;2022-12-07T14:48:49;8.23;;;4.97;;
23258;SDS011;11798;51.528;7.240;2022-12-07T14:51:15;7.47;;;5.13;;
23258;SDS011;11798;51.528;7.240;2022-12-07T14:53:43;10.77;;;6.00;;
23258;SDS011;11798;51.528;7.240;2022-12-07T14:56:15;8.90;;;5.23;;
23258;SDS011;11798;51.528;7.240;2022-12-07T14:58:41;8.23;;;5.43;;
23258;SDS011;11798;51.528;7.240;2022-12-07T15:01:06;11.60;;;5.50;;
23258;SDS011;11798;51.528;7.240;2022-12-07T15:03:32;8.93;;;5.47;;
23258;SDS011;11798;51.528;7.240;2022-12-07T15:05:59;9.60;;;6.10;;
23258;SDS011;11798;51.528;7.240;2022-12-07T15:08:25;10.27;;;6.47;;
23258;SDS011;11798;51.528;7.240;2022-12-07T15:10:51;11.97;;;5.67;;
23258;SDS011;11798;51.528;7.240;2022-12-07T15:13:17;14.93;;;6.50;;
23258;SDS011;11798;51.528;7.240;2022-12-07T15:16:01;12.87;;;6.10;;
23258;SDS011;11798;51.528;7.240;2022-12-07T15:18:27;14.73;;;6.07;;
23258;SDS011;11798;51.528;7.240;2022-12-07T15:20:52;17.33;;;6.80;;
23258;SDS011;11798;51.528;7.240;2022-12-07T15:23:18;17.27;;;6.90;;
23258;SDS011;11798;51.528;7.240;2022-12-07T15:25:45;11.03;;;6.47;;
23258;SDS011;11798;51.528;7.240;2022-12-07T15:28:12;13.47;;;7.13;;
23258;SDS011;11798;51.528;7.240;2022-12-07T15:30:39;12.60;;;6.63;;
23258;SDS011;11798;51.528;7.240;2022-12-07T15:33:07;15.67;;;7.20;;
23258;SDS011;11798;51.528;7.240;2022-12-07T15:35:33;8.87;;;5.80;;
23258;SDS011;11798;51.528;7.240;2022-12-07T15:38:02;12.43;;;6.40;;
23258;SDS011;11798;51.528;7.240;2022-12-07T15:40:28;15.40;;;7.00;;
23258;SDS011;11798;51.528;7.240;2022-12-07T15:42:54;10.53;;;6.57;;
23258;SDS011;11798;51.528;7.240;2022-12-07T15:45:19;12.33;;;7.03;;
23258;SDS011;11798;51.528;7.240;2022-12-07T15:47:45;11.10;;;6.40;;
23258;SDS011;11798;51.528;7.240;2022-12-07T15:50:12;11.60;;;7.63;;
23258;SDS011;11798;51.528;7.240;2022-12-07T15:52:39;15.67;;;8.17;;
23258;SDS011;11798;51.528;7.240;2022-12-07T15:55:06;15.93;;;7.17;;
23258;SDS011;11798;51.528;7.240;2022-12-07T15:57:32;16.17;;;7.93;;
23258;SDS011;11798;51.528;7.240;2022-12-07T16:00:00;13.70;;;7.00;;
23258;SDS011;11798;51.528;7.240;2022-12-07T16:02:26;15.17;;;7.47;;
23258;SDS011;11798;51.528;7.240;2022-12-07T16:04:51;11.97;;;6.57;;
23258;SDS011;11798;51.528;7.240;2022-12-07T16:07:18;10.10;;;6.80;;
23258;SDS011;11798;51.528;7.240;2022-12-07T16:09:44;19.47;;;7.50;;
23258;SDS011;11798;51.528;7.240;2022-12-07T16:12:11;15.87;;;7.87;;
23258;SDS011;11798;51.528;7.240;2022-12-07T16:14:39;13.63;;;7.83;;
23258;SDS011;11798;51.528;7.240;2022-12-07T16:17:05;16.93;;;7.73;;
23258;SDS011;11798;51.528;7.240;2022-12-07T16:19:33;13.30;;;7.97;;
23258;SDS011;11798;51.528;7.240;2022-12-07T16:21:59;21.80;;;8.53;;
23258;SDS011;11798;51.528;7.240;2022-12-07T16:24:26;18.27;;;9.43;;
23258;SDS011;11798;51.528;7.240;2022-12-07T16:26:52;16.20;;;8.43;;
23258;SDS011;11798;51.528;7.240;2022-12-07T16:29:18;19.17;;;9.10;;
23258;SDS011;11798;51.528;7.240;2022-12-07T16:31:45;15.90;;;9.20;;
23258;SDS011;11798;51.528;7.240;2022-12-07T16:34:12;18.53;;;8.97;;
23258;SDS011;11798;51.528;7.240;2022-12-07T16:36:37;15.50;;;9.13;;
23258;SDS011;11798;51.528;7.240;2022-12-07T16:39:04;19.57;;;8.87;;
23258;SDS011;11798;51.528;7.240;2022-12-07T16:41:30;19.43;;;8.40;;
23258;SDS011;11798;51.528;7.240;2022-12-07T16:43:56;15.67;;;8.40;;
23258;SDS011;11798;51.528;7.240;2022-12-07T16:46:21;16.80;;;7.43;;
23258;SDS011;11798;51.528;7.240;2022-12-07T16:48:47;16.83;;;9.37;;
23258;SDS011;11798;51.528;7.240;2022-12-07T16:51:13;16.97;;;8.77;;
23258;SDS011;11798;51.528;7.240;2022-12-07T16:53:40;21.53;;;8.80;;
23258;SDS011;11798;51.528;7.240;2022-12-07T16:56:13;15.77;;;8.33;;
23258;SDS011;11798;51.528;7.240;2022-12-07T16:58:40;19.60;;;8.63;;